ウルムチ の空港の天気 - METARとTAF

ウルムチ地窩堡国際空港 ( ZWWW / URC ) - 中国 新疆ウイグル自治区ウルムチ市
飛行場実況気象(Metar)
観測時間12/01 00:00 CST (11/30 16:00 UTC)
風向・風速西 1m/s
視程6000m
天気現象
なし
気温-20℃
湿度84%
気圧1035hPa
METARZWWW 301600Z 28001MPS 6000 NSC M20/M22 Q1035 NOSIG
過去の天気等 Google飛行場航空写真 Wunderground天気予報

過去48時間のMETAR

飛行場予報(TAF)
発表時間: 11/30 17:04 CST (11/30 09:04 UTC)
予報対象時間: 30日20時 CST ~ 1日20時 CST
風向・風速北 3m/s
視程3500m
天気現象もや
なし
30日21時 CST ~ 30日22時 CST に徐々に
風向・風速南 3m/s
1日11時 CST ~ 1日12時 CST に徐々に
風向・風速北 3m/s
TAF ZWWW 300904Z 3012/0112 36003MPS 3500 BR NSC TXM13/0109Z TNM20/3023Z
BECMG 3013/3014 18003MPS
BECMG 0103/0104 36003MPS